sensor_id;sensor_type;location;lat;lon;timestamp;P1;durP1;ratioP1;P2;durP2;ratioP2
19944;SDS011;10134;50.952;6.930;2023-04-24T00:01:49;0.60;;;0.60;;
19944;SDS011;10134;50.952;6.930;2023-04-24T00:04:16;1.15;;;0.60;;
19944;SDS011;10134;50.952;6.930;2023-04-24T00:06:44;0.70;;;0.70;;
19944;SDS011;10134;50.952;6.930;2023-04-24T00:09:16;1.05;;;0.60;;
19944;SDS011;10134;50.952;6.930;2023-04-24T00:11:43;0.60;;;0.60;;
19944;SDS011;10134;50.952;6.930;2023-04-24T00:14:10;2.08;;;1.23;;
19944;SDS011;10134;50.952;6.930;2023-04-24T00:16:38;1.73;;;0.70;;
19944;SDS011;10134;50.952;6.930;2023-04-24T00:19:05;2.10;;;0.93;;
19944;SDS011;10134;50.952;6.930;2023-04-24T00:21:33;1.80;;;0.70;;
19944;SDS011;10134;50.952;6.930;2023-04-24T00:24:00;1.90;;;0.63;;
19944;SDS011;10134;50.952;6.930;2023-04-24T00:26:28;1.77;;;0.60;;
19944;SDS011;10134;50.952;6.930;2023-04-24T00:28:55;0.77;;;0.70;;
19944;SDS011;10134;50.952;6.930;2023-04-24T00:31:22;0.90;;;0.70;;
19944;SDS011;10134;50.952;6.930;2023-04-24T00:33:50;1.58;;;0.77;;
19944;SDS011;10134;50.952;6.930;2023-04-24T00:36:17;1.00;;;0.70;;
19944;SDS011;10134;50.952;6.930;2023-04-24T00:38:47;0.75;;;0.75;;
19944;SDS011;10134;50.952;6.930;2023-04-24T00:41:14;3.53;;;0.90;;
19944;SDS011;10134;50.952;6.930;2023-04-24T00:43:42;1.30;;;0.75;;
19944;SDS011;10134;50.952;6.930;2023-04-24T00:46:10;0.82;;;0.70;;
19944;SDS011;10134;50.952;6.930;2023-04-24T00:48:38;1.75;;;0.80;;
19944;SDS011;10134;50.952;6.930;2023-04-24T00:51:06;2.42;;;0.88;;
19944;SDS011;10134;50.952;6.930;2023-04-24T00:53:34;2.05;;;0.90;;
19944;SDS011;10134;50.952;6.930;2023-04-24T00:56:02;1.23;;;0.75;;
19944;SDS011;10134;50.952;6.930;2023-04-24T00:58:29;1.85;;;0.80;;
19944;SDS011;10134;50.952;6.930;2023-04-24T01:00:58;2.78;;;1.00;;
19944;SDS011;10134;50.952;6.930;2023-04-24T01:03:29;1.00;;;0.90;;
19944;SDS011;10134;50.952;6.930;2023-04-24T01:05:58;0.82;;;0.80;;
19944;SDS011;10134;50.952;6.930;2023-04-24T01:08:26;0.80;;;0.80;;
19944;SDS011;10134;50.952;6.930;2023-04-24T01:10:56;2.25;;;1.00;;
19944;SDS011;10134;50.952;6.930;2023-04-24T01:13:24;0.75;;;0.75;;
19944;SDS011;10134;50.952;6.930;2023-04-24T01:15:51;1.58;;;1.00;;
19944;SDS011;10134;50.952;6.930;2023-04-24T01:18:19;1.98;;;1.08;;
19944;SDS011;10134;50.952;6.930;2023-04-24T01:20:49;2.50;;;1.10;;
19944;SDS011;10134;50.952;6.930;2023-04-24T01:23:19;1.55;;;0.95;;
19944;SDS011;10134;50.952;6.930;2023-04-24T01:25:46;6.47;;;1.20;;
19944;SDS011;10134;50.952;6.930;2023-04-24T01:28:16;2.03;;;0.85;;
19944;SDS011;10134;50.952;6.930;2023-04-24T01:30:44;1.67;;;1.35;;
19944;SDS011;10134;50.952;6.930;2023-04-24T01:33:11;2.20;;;1.27;;
19944;SDS011;10134;50.952;6.930;2023-04-24T01:35:39;1.60;;;1.25;;
19944;SDS011;10134;50.952;6.930;2023-04-24T01:38:06;3.88;;;2.30;;
19944;SDS011;10134;50.952;6.930;2023-04-24T01:40:35;3.13;;;2.17;;
19944;SDS011;10134;50.952;6.930;2023-04-24T01:43:02;3.97;;;2.85;;
19944;SDS011;10134;50.952;6.930;2023-04-24T01:45:30;2.45;;;2.00;;
19944;SDS011;10134;50.952;6.930;2023-04-24T01:47:57;4.15;;;2.75;;
19944;SDS011;10134;50.952;6.930;2023-04-24T01:50:25;5.88;;;2.80;;
19944;SDS011;10134;50.952;6.930;2023-04-24T01:52:52;4.07;;;2.80;;
19944;SDS011;10134;50.952;6.930;2023-04-24T01:55:20;3.60;;;2.40;;
19944;SDS011;10134;50.952;6.930;2023-04-24T01:57:47;2.83;;;2.20;;
19944;SDS011;10134;50.952;6.930;2023-04-24T02:00:15;5.85;;;3.08;;
19944;SDS011;10134;50.952;6.930;2023-04-24T02:02:42;5.70;;;2.83;;
19944;SDS011;10134;50.952;6.930;2023-04-24T02:05:14;2.97;;;2.30;;
19944;SDS011;10134;50.952;6.930;2023-04-24T02:07:41;4.30;;;2.58;;
19944;SDS011;10134;50.952;6.930;2023-04-24T02:10:09;7.72;;;3.05;;
19944;SDS011;10134;50.952;6.930;2023-04-24T02:12:41;4.53;;;3.10;;
19944;SDS011;10134;50.952;6.930;2023-04-24T02:15:09;3.13;;;2.53;;
19944;SDS011;10134;50.952;6.930;2023-04-24T02:17:36;4.20;;;3.03;;
19944;SDS011;10134;50.952;6.930;2023-04-24T02:20:05;4.28;;;3.03;;
19944;SDS011;10134;50.952;6.930;2023-04-24T02:22:33;5.38;;;3.17;;
19944;SDS011;10134;50.952;6.930;2023-04-24T02:25:01;5.38;;;3.05;;
19944;SDS011;10134;50.952;6.930;2023-04-24T02:27:28;5.90;;;3.15;;
19944;SDS011;10134;50.952;6.930;2023-04-24T02:29:56;4.22;;;3.22;;
19944;SDS011;10134;50.952;6.930;2023-04-24T02:32:24;5.07;;;3.08;;
19944;SDS011;10134;50.952;6.930;2023-04-24T02:34:51;7.50;;;3.78;;
19944;SDS011;10134;50.952;6.930;2023-04-24T02:37:19;5.10;;;3.58;;
19944;SDS011;10134;50.952;6.930;2023-04-24T02:39:46;5.55;;;3.33;;
19944;SDS011;10134;50.952;6.930;2023-04-24T02:42:13;4.55;;;3.63;;
19944;SDS011;10134;50.952;6.930;2023-04-24T02:44:42;6.95;;;3.60;;
19944;SDS011;10134;50.952;6.930;2023-04-24T02:47:09;4.63;;;3.05;;
19944;SDS011;10134;50.952;6.930;2023-04-24T02:49:36;4.05;;;2.80;;
19944;SDS011;10134;50.952;6.930;2023-04-24T02:52:04;6.32;;;3.78;;
19944;SDS011;10134;50.952;6.930;2023-04-24T02:54:31;8.20;;;3.70;;
19944;SDS011;10134;50.952;6.930;2023-04-24T02:56:59;6.00;;;4.07;;
19944;SDS011;10134;50.952;6.930;2023-04-24T02:59:28;5.30;;;4.22;;
19944;SDS011;10134;50.952;6.930;2023-04-24T03:01:55;5.60;;;4.05;;
19944;SDS011;10134;50.952;6.930;2023-04-24T03:04:22;5.18;;;3.03;;
19944;SDS011;10134;50.952;6.930;2023-04-24T03:06:50;6.45;;;3.92;;
19944;SDS011;10134;50.952;6.930;2023-04-24T03:09:22;7.55;;;4.15;;
19944;SDS011;10134;50.952;6.930;2023-04-24T03:11:50;5.00;;;4.22;;
19944;SDS011;10134;50.952;6.930;2023-04-24T03:14:17;5.15;;;4.15;;
19944;SDS011;10134;50.952;6.930;2023-04-24T03:16:44;8.13;;;5.00;;
19944;SDS011;10134;50.952;6.930;2023-04-24T03:19:12;5.88;;;4.43;;
19944;SDS011;10134;50.952;6.930;2023-04-24T03:21:54;6.70;;;4.28;;
19944;SDS011;10134;50.952;6.930;2023-04-24T03:24:21;6.30;;;4.40;;
19944;SDS011;10134;50.952;6.930;2023-04-24T03:26:49;6.25;;;4.68;;
19944;SDS011;10134;50.952;6.930;2023-04-24T03:29:30;5.70;;;4.50;;
19944;SDS011;10134;50.952;6.930;2023-04-24T03:31:58;8.18;;;5.22;;
19944;SDS011;10134;50.952;6.930;2023-04-24T03:34:26;7.93;;;4.40;;
19944;SDS011;10134;50.952;6.930;2023-04-24T03:36:53;6.72;;;4.55;;
19944;SDS011;10134;50.952;6.930;2023-04-24T03:39:21;5.38;;;4.20;;
19944;SDS011;10134;50.952;6.930;2023-04-24T03:41:53;7.25;;;4.63;;
19944;SDS011;10134;50.952;6.930;2023-04-24T03:44:26;9.13;;;5.13;;
19944;SDS011;10134;50.952;6.930;2023-04-24T03:46:54;7.60;;;4.68;;
19944;SDS011;10134;50.952;6.930;2023-04-24T03:49:23;5.93;;;4.63;;
19944;SDS011;10134;50.952;6.930;2023-04-24T03:51:50;10.45;;;5.30;;
19944;SDS011;10134;50.952;6.930;2023-04-24T03:54:22;7.93;;;6.40;;
19944;SDS011;10134;50.952;6.930;2023-04-24T03:56:51;9.02;;;6.22;;
19944;SDS011;10134;50.952;6.930;2023-04-24T03:59:19;7.90;;;5.43;;
19944;SDS011;10134;50.952;6.930;2023-04-24T04:01:56;6.03;;;4.72;;
19944;SDS011;10134;50.952;6.930;2023-04-24T04:04:24;6.18;;;4.60;;
19944;SDS011;10134;50.952;6.930;2023-04-24T04:06:52;9.95;;;4.30;;
19944;SDS011;10134;50.952;6.930;2023-04-24T04:09:20;9.38;;;4.82;;
19944;SDS011;10134;50.952;6.930;2023-04-24T04:11:47;6.63;;;4.85;;
19944;SDS011;10134;50.952;6.930;2023-04-24T04:14:14;7.57;;;4.80;;
19944;SDS011;10134;50.952;6.930;2023-04-24T04:16:45;6.78;;;4.57;;
19944;SDS011;10134;50.952;6.930;2023-04-24T04:19:13;7.18;;;4.38;;
19944;SDS011;10134;50.952;6.930;2023-04-24T04:21:40;7.07;;;4.32;;
19944;SDS011;10134;50.952;6.930;2023-04-24T04:24:23;5.03;;;4.05;;
19944;SDS011;10134;50.952;6.930;2023-04-24T04:26:51;5.45;;;4.18;;
19944;SDS011;10134;50.952;6.930;2023-04-24T04:29:26;7.10;;;4.65;;
19944;SDS011;10134;50.952;6.930;2023-04-24T04:31:54;5.30;;;4.18;;
19944;SDS011;10134;50.952;6.930;2023-04-24T04:34:22;5.85;;;4.05;;
19944;SDS011;10134;50.952;6.930;2023-04-24T04:36:50;5.07;;;4.10;;
19944;SDS011;10134;50.952;6.930;2023-04-24T04:39:40;9.55;;;4.22;;
19944;SDS011;10134;50.952;6.930;2023-04-24T04:42:16;7.95;;;4.32;;
19944;SDS011;10134;50.952;6.930;2023-04-24T04:44:45;8.82;;;4.43;;
19944;SDS011;10134;50.952;6.930;2023-04-24T04:47:17;7.45;;;4.90;;
19944;SDS011;10134;50.952;6.930;2023-04-24T04:49:45;9.50;;;6.55;;
19944;SDS011;10134;50.952;6.930;2023-04-24T04:52:18;10.20;;;5.20;;
19944;SDS011;10134;50.952;6.930;2023-04-24T04:54:50;5.78;;;4.38;;
19944;SDS011;10134;50.952;6.930;2023-04-24T04:57:19;7.65;;;4.13;;
19944;SDS011;10134;50.952;6.930;2023-04-24T04:59:47;5.18;;;3.75;;
19944;SDS011;10134;50.952;6.930;2023-04-24T05:02:25;6.72;;;4.25;;
19944;SDS011;10134;50.952;6.930;2023-04-24T05:04:52;6.22;;;4.43;;
19944;SDS011;10134;50.952;6.930;2023-04-24T05:07:23;6.25;;;4.10;;
19944;SDS011;10134;50.952;6.930;2023-04-24T05:09:53;7.10;;;3.72;;
19944;SDS011;10134;50.952;6.930;2023-04-24T05:12:23;6.40;;;3.72;;
19944;SDS011;10134;50.952;6.930;2023-04-24T05:14:52;7.90;;;4.57;;
19944;SDS011;10134;50.952;6.930;2023-04-24T05:17:20;11.45;;;8.07;;
19944;SDS011;10134;50.952;6.930;2023-04-24T05:19:52;9.10;;;4.88;;
19944;SDS011;10134;50.952;6.930;2023-04-24T05:22:20;5.20;;;4.00;;
19944;SDS011;10134;50.952;6.930;2023-04-24T05:24:50;5.80;;;3.97;;
19944;SDS011;10134;50.952;6.930;2023-04-24T05:27:37;4.30;;;3.65;;
19944;SDS011;10134;50.952;6.930;2023-04-24T05:30:11;15.60;;;4.43;;
19944;SDS011;10134;50.952;6.930;2023-04-24T05:32:39;8.13;;;4.10;;
19944;SDS011;10134;50.952;6.930;2023-04-24T05:35:07;4.90;;;3.38;;
19944;SDS011;10134;50.952;6.930;2023-04-24T05:37:35;7.72;;;3.70;;
19944;SDS011;10134;50.952;6.930;2023-04-24T05:40:03;5.88;;;4.03;;
19944;SDS011;10134;50.952;6.930;2023-04-24T05:42:32;7.03;;;4.20;;
19944;SDS011;10134;50.952;6.930;2023-04-24T05:44:59;5.78;;;3.50;;
19944;SDS011;10134;50.952;6.930;2023-04-24T05:47:26;5.28;;;3.88;;
19944;SDS011;10134;50.952;6.930;2023-04-24T05:49:54;8.13;;;4.15;;
19944;SDS011;10134;50.952;6.930;2023-04-24T05:52:21;7.13;;;3.60;;
19944;SDS011;10134;50.952;6.930;2023-04-24T05:54:49;5.57;;;4.35;;
19944;SDS011;10134;50.952;6.930;2023-04-24T05:57:21;6.35;;;4.57;;
19944;SDS011;10134;50.952;6.930;2023-04-24T05:59:53;6.32;;;3.72;;
19944;SDS011;10134;50.952;6.930;2023-04-24T06:02:21;5.35;;;3.65;;
19944;SDS011;10134;50.952;6.930;2023-04-24T06:04:51;7.30;;;4.45;;
19944;SDS011;10134;50.952;6.930;2023-04-24T06:07:19;7.95;;;4.30;;
19944;SDS011;10134;50.952;6.930;2023-04-24T06:09:47;3.78;;;3.13;;
19944;SDS011;10134;50.952;6.930;2023-04-24T06:12:14;4.78;;;3.30;;
19944;SDS011;10134;50.952;6.930;2023-04-24T06:14:59;3.45;;;2.35;;
19944;SDS011;10134;50.952;6.930;2023-04-24T06:17:49;2.72;;;2.05;;
19944;SDS011;10134;50.952;6.930;2023-04-24T06:20:17;3.88;;;1.75;;
19944;SDS011;10134;50.952;6.930;2023-04-24T06:22:45;6.93;;;2.22;;
19944;SDS011;10134;50.952;6.930;2023-04-24T06:25:12;3.05;;;2.00;;
19944;SDS011;10134;50.952;6.930;2023-04-24T06:27:40;1.95;;;1.70;;
19944;SDS011;10134;50.952;6.930;2023-04-24T06:30:07;2.78;;;1.50;;
19944;SDS011;10134;50.952;6.930;2023-04-24T06:32:35;2.47;;;1.50;;
19944;SDS011;10134;50.952;6.930;2023-04-24T06:35:03;2.38;;;1.70;;
19944;SDS011;10134;50.952;6.930;2023-04-24T06:37:30;2.85;;;1.70;;
19944;SDS011;10134;50.952;6.930;2023-04-24T06:39:58;3.30;;;1.70;;
19944;SDS011;10134;50.952;6.930;2023-04-24T06:42:26;2.63;;;1.60;;
19944;SDS011;10134;50.952;6.930;2023-04-24T06:44:55;2.28;;;1.40;;
19944;SDS011;10134;50.952;6.930;2023-04-24T06:47:22;1.65;;;1.25;;
19944;SDS011;10134;50.952;6.930;2023-04-24T06:49:49;1.65;;;1.50;;
19944;SDS011;10134;50.952;6.930;2023-04-24T06:52:19;2.63;;;1.30;;
19944;SDS011;10134;50.952;6.930;2023-04-24T06:54:46;3.22;;;1.30;;
19944;SDS011;10134;50.952;6.930;2023-04-24T06:57:14;3.22;;;2.00;;
19944;SDS011;10134;50.952;6.930;2023-04-24T06:59:42;3.25;;;1.42;;
19944;SDS011;10134;50.952;6.930;2023-04-24T07:02:10;2.17;;;1.42;;
19944;SDS011;10134;50.952;6.930;2023-04-24T07:04:38;3.42;;;1.60;;
19944;SDS011;10134;50.952;6.930;2023-04-24T07:07:05;2.50;;;1.70;;
19944;SDS011;10134;50.952;6.930;2023-04-24T07:09:33;2.45;;;1.35;;
19944;SDS011;10134;50.952;6.930;2023-04-24T07:12:05;2.33;;;1.23;;
19944;SDS011;10134;50.952;6.930;2023-04-24T07:14:32;4.97;;;1.80;;
19944;SDS011;10134;50.952;6.930;2023-04-24T07:17:00;2.17;;;1.48;;
19944;SDS011;10134;50.952;6.930;2023-04-24T07:19:27;4.00;;;1.70;;
19944;SDS011;10134;50.952;6.930;2023-04-24T07:21:55;2.05;;;1.48;;
19944;SDS011;10134;50.952;6.930;2023-04-24T07:24:22;3.72;;;1.50;;
19944;SDS011;10134;50.952;6.930;2023-04-24T07:26:52;2.05;;;1.50;;
19944;SDS011;10134;50.952;6.930;2023-04-24T07:29:20;1.73;;;1.58;;
19944;SDS011;10134;50.952;6.930;2023-04-24T07:31:48;1.50;;;1.25;;
19944;SDS011;10134;50.952;6.930;2023-04-24T07:34:15;2.47;;;1.88;;
19944;SDS011;10134;50.952;6.930;2023-04-24T07:36:42;0.88;;;0.82;;
19944;SDS011;10134;50.952;6.930;2023-04-24T07:39:10;2.90;;;1.48;;
19944;SDS011;10134;50.952;6.930;2023-04-24T07:41:37;1.33;;;1.00;;
19944;SDS011;10134;50.952;6.930;2023-04-24T07:44:04;1.58;;;1.00;;
19944;SDS011;10134;50.952;6.930;2023-04-24T07:46:31;1.25;;;1.00;;
19944;SDS011;10134;50.952;6.930;2023-04-24T07:48:59;2.58;;;1.05;;
19944;SDS011;10134;50.952;6.930;2023-04-24T07:51:39;1.52;;;0.90;;
19944;SDS011;10134;50.952;6.930;2023-04-24T07:54:08;5.40;;;3.03;;
19944;SDS011;10134;50.952;6.930;2023-04-24T07:56:35;3.58;;;2.10;;
19944;SDS011;10134;50.952;6.930;2023-04-24T07:59:06;0.68;;;0.68;;
19944;SDS011;10134;50.952;6.930;2023-04-24T08:01:33;1.25;;;1.10;;
19944;SDS011;10134;50.952;6.930;2023-04-24T08:04:00;1.92;;;1.00;;
19944;SDS011;10134;50.952;6.930;2023-04-24T08:06:28;1.05;;;0.75;;
19944;SDS011;10134;50.952;6.930;2023-04-24T08:08:57;2.58;;;1.15;;
19944;SDS011;10134;50.952;6.930;2023-04-24T08:11:26;0.70;;;0.70;;
19944;SDS011;10134;50.952;6.930;2023-04-24T08:13:53;3.45;;;1.20;;
19944;SDS011;10134;50.952;6.930;2023-04-24T08:16:22;1.67;;;0.95;;
19944;SDS011;10134;50.952;6.930;2023-04-24T08:18:51;1.77;;;1.13;;
19944;SDS011;10134;50.952;6.930;2023-04-24T08:21:18;2.90;;;1.08;;
19944;SDS011;10134;50.952;6.930;2023-04-24T08:23:47;3.83;;;1.27;;
19944;SDS011;10134;50.952;6.930;2023-04-24T08:26:14;3.28;;;1.15;;
19944;SDS011;10134;50.952;6.930;2023-04-24T08:28:42;1.13;;;1.00;;
19944;SDS011;10134;50.952;6.930;2023-04-24T08:31:09;1.10;;;1.00;;
19944;SDS011;10134;50.952;6.930;2023-04-24T08:33:37;0.83;;;0.73;;
19944;SDS011;10134;50.952;6.930;2023-04-24T08:36:04;2.00;;;1.10;;
19944;SDS011;10134;50.952;6.930;2023-04-24T08:38:33;1.17;;;0.90;;
19944;SDS011;10134;50.952;6.930;2023-04-24T08:41:00;3.20;;;1.13;;
19944;SDS011;10134;50.952;6.930;2023-04-24T08:43:28;2.50;;;0.97;;
19944;SDS011;10134;50.952;6.930;2023-04-24T08:45:56;2.67;;;1.45;;
19944;SDS011;10134;50.952;6.930;2023-04-24T08:48:24;2.10;;;1.27;;
19944;SDS011;10134;50.952;6.930;2023-04-24T08:50:58;3.17;;;1.47;;
19944;SDS011;10134;50.952;6.930;2023-04-24T08:53:26;2.95;;;1.40;;
19944;SDS011;10134;50.952;6.930;2023-04-24T08:55:54;2.15;;;1.30;;
19944;SDS011;10134;50.952;6.930;2023-04-24T08:58:26;3.37;;;1.90;;
19944;SDS011;10134;50.952;6.930;2023-04-24T09:00:55;2.13;;;1.50;;
19944;SDS011;10134;50.952;6.930;2023-04-24T09:03:22;2.47;;;1.67;;
19944;SDS011;10134;50.952;6.930;2023-04-24T09:05:50;3.00;;;1.80;;
19944;SDS011;10134;50.952;6.930;2023-04-24T09:08:21;7.33;;;2.30;;
19944;SDS011;10134;50.952;6.930;2023-04-24T09:10:51;4.53;;;2.07;;
19944;SDS011;10134;50.952;6.930;2023-04-24T09:13:19;3.03;;;2.23;;
19944;SDS011;10134;50.952;6.930;2023-04-24T09:15:47;4.17;;;2.70;;
19944;SDS011;10134;50.952;6.930;2023-04-24T09:18:14;4.77;;;2.73;;
19944;SDS011;10134;50.952;6.930;2023-04-24T09:23:38;13.97;;;7.33;;
19944;SDS011;10134;50.952;6.930;2023-04-24T09:26:06;6.13;;;3.73;;
19944;SDS011;10134;50.952;6.930;2023-04-24T09:28:37;7.17;;;4.00;;
19944;SDS011;10134;50.952;6.930;2023-04-24T09:31:16;8.27;;;4.10;;
19944;SDS011;10134;50.952;6.930;2023-04-24T09:33:53;7.57;;;4.00;;
19944;SDS011;10134;50.952;6.930;2023-04-24T09:36:30;8.20;;;3.27;;
19944;SDS011;10134;50.952;6.930;2023-04-24T09:39:01;9.90;;;3.90;;
19944;SDS011;10134;50.952;6.930;2023-04-24T09:41:29;9.03;;;4.43;;
19944;SDS011;10134;50.952;6.930;2023-04-24T09:43:57;8.47;;;4.33;;
19944;SDS011;10134;50.952;6.930;2023-04-24T09:46:37;10.03;;;4.87;;
19944;SDS011;10134;50.952;6.930;2023-04-24T09:49:08;7.67;;;4.53;;
19944;SDS011;10134;50.952;6.930;2023-04-24T09:51:37;6.82;;;4.55;;
19944;SDS011;10134;50.952;6.930;2023-04-24T09:54:15;9.90;;;4.60;;
19944;SDS011;10134;50.952;6.930;2023-04-24T09:56:44;8.20;;;5.15;;
19944;SDS011;10134;50.952;6.930;2023-04-24T09:59:18;7.93;;;4.35;;
19944;SDS011;10134;50.952;6.930;2023-04-24T10:01:46;8.02;;;4.47;;
19944;SDS011;10134;50.952;6.930;2023-04-24T10:04:20;5.78;;;3.75;;
19944;SDS011;10134;50.952;6.930;2023-04-24T10:06:51;7.47;;;4.70;;
19944;SDS011;10134;50.952;6.930;2023-04-24T10:09:24;7.80;;;4.57;;
19944;SDS011;10134;50.952;6.930;2023-04-24T10:11:53;7.17;;;3.83;;
19944;SDS011;10134;50.952;6.930;2023-04-24T10:14:22;6.27;;;3.93;;
19944;SDS011;10134;50.952;6.930;2023-04-24T10:16:53;8.13;;;3.63;;
19944;SDS011;10134;50.952;6.930;2023-04-24T10:19:21;4.45;;;3.70;;
19944;SDS011;10134;50.952;6.930;2023-04-24T10:21:52;8.48;;;4.15;;
19944;SDS011;10134;50.952;6.930;2023-04-24T10:24:22;7.20;;;3.78;;
19944;SDS011;10134;50.952;6.930;2023-04-24T10:26:49;5.03;;;3.25;;
19944;SDS011;10134;50.952;6.930;2023-04-24T10:29:17;5.05;;;3.13;;
19944;SDS011;10134;50.952;6.930;2023-04-24T10:31:45;5.68;;;3.42;;
19944;SDS011;10134;50.952;6.930;2023-04-24T10:34:14;6.95;;;3.22;;
19944;SDS011;10134;50.952;6.930;2023-04-24T10:36:45;6.40;;;3.33;;
19944;SDS011;10134;50.952;6.930;2023-04-24T10:39:15;6.22;;;2.92;;
19944;SDS011;10134;50.952;6.930;2023-04-24T10:41:44;8.27;;;2.83;;
19944;SDS011;10134;50.952;6.930;2023-04-24T10:44:14;5.45;;;2.95;;
19944;SDS011;10134;50.952;6.930;2023-04-24T10:46:43;6.90;;;2.95;;
19944;SDS011;10134;50.952;6.930;2023-04-24T10:49:11;8.00;;;3.35;;
19944;SDS011;10134;50.952;6.930;2023-04-24T10:51:52;6.55;;;3.42;;
19944;SDS011;10134;50.952;6.930;2023-04-24T10:54:24;4.95;;;2.63;;
19944;SDS011;10134;50.952;6.930;2023-04-24T10:56:53;10.25;;;3.95;;
19944;SDS011;10134;50.952;6.930;2023-04-24T10:59:50;6.55;;;3.25;;
19944;SDS011;10134;50.952;6.930;2023-04-24T11:02:37;5.18;;;2.97;;
19944;SDS011;10134;50.952;6.930;2023-04-24T11:05:06;8.07;;;3.53;;
19944;SDS011;10134;50.952;6.930;2023-04-24T11:11:00;7.80;;;4.40;;
19944;SDS011;10134;50.952;6.930;2023-04-24T11:21:45;11.05;;;3.53;;
19944;SDS011;10134;50.952;6.930;2023-04-24T11:24:25;6.90;;;3.42;;
19944;SDS011;10134;50.952;6.930;2023-04-24T11:26:56;5.03;;;3.38;;
19944;SDS011;10134;50.952;6.930;2023-04-24T11:34:55;9.63;;;4.30;;
19944;SDS011;10134;50.952;6.930;2023-04-24T11:37:28;13.77;;;5.95;;
19944;SDS011;10134;50.952;6.930;2023-04-24T11:40:02;8.85;;;3.90;;
19944;SDS011;10134;50.952;6.930;2023-04-24T11:42:50;10.98;;;3.90;;
19944;SDS011;10134;50.952;6.930;2023-04-24T11:45:20;9.57;;;4.22;;
19944;SDS011;10134;50.952;6.930;2023-04-24T11:47:52;8.88;;;4.30;;
19944;SDS011;10134;50.952;6.930;2023-04-24T11:50:24;9.77;;;3.92;;
19944;SDS011;10134;50.952;6.930;2023-04-24T11:52:53;12.82;;;4.43;;
19944;SDS011;10134;50.952;6.930;2023-04-24T11:57:52;9.55;;;4.50;;
19944;SDS011;10134;50.952;6.930;2023-04-24T12:00:22;12.43;;;4.97;;
19944;SDS011;10134;50.952;6.930;2023-04-24T12:02:49;9.85;;;4.65;;
19944;SDS011;10134;50.952;6.930;2023-04-24T12:05:25;10.20;;;4.60;;
19944;SDS011;10134;50.952;6.930;2023-04-24T12:07:54;7.53;;;3.88;;
19944;SDS011;10134;50.952;6.930;2023-04-24T12:10:22;9.68;;;4.57;;
19944;SDS011;10134;50.952;6.930;2023-04-24T12:12:56;7.57;;;4.55;;
19944;SDS011;10134;50.952;6.930;2023-04-24T12:15:24;8.50;;;3.97;;
19944;SDS011;10134;50.952;6.930;2023-04-24T12:17:53;11.10;;;3.92;;
19944;SDS011;10134;50.952;6.930;2023-04-24T12:20:26;8.07;;;4.25;;
19944;SDS011;10134;50.952;6.930;2023-04-24T12:22:55;9.30;;;3.80;;
19944;SDS011;10134;50.952;6.930;2023-04-24T12:25:25;13.13;;;4.97;;
19944;SDS011;10134;50.952;6.930;2023-04-24T12:30:33;6.93;;;4.82;;
19944;SDS011;10134;50.952;6.930;2023-04-24T12:33:05;8.45;;;4.63;;
19944;SDS011;10134;50.952;6.930;2023-04-24T12:35:32;11.43;;;5.85;;
19944;SDS011;10134;50.952;6.930;2023-04-24T12:38:08;9.05;;;4.38;;
19944;SDS011;10134;50.952;6.930;2023-04-24T12:40:39;10.73;;;4.93;;
19944;SDS011;10134;50.952;6.930;2023-04-24T12:43:14;11.13;;;3.85;;
19944;SDS011;10134;50.952;6.930;2023-04-24T12:45:43;10.23;;;3.90;;
19944;SDS011;10134;50.952;6.930;2023-04-24T12:48:11;9.07;;;3.30;;
19944;SDS011;10134;50.952;6.930;2023-04-24T12:50:41;6.45;;;3.30;;
19944;SDS011;10134;50.952;6.930;2023-04-24T12:53:11;9.63;;;3.63;;
19944;SDS011;10134;50.952;6.930;2023-04-24T12:55:39;10.13;;;3.75;;
19944;SDS011;10134;50.952;6.930;2023-04-24T12:58:07;5.32;;;3.40;;
19944;SDS011;10134;50.952;6.930;2023-04-24T13:00:34;10.45;;;3.70;;
19944;SDS011;10134;50.952;6.930;2023-04-24T13:03:02;8.13;;;3.42;;
19944;SDS011;10134;50.952;6.930;2023-04-24T13:05:30;9.05;;;4.10;;
19944;SDS011;10134;50.952;6.930;2023-04-24T13:07:58;10.88;;;3.58;;
19944;SDS011;10134;50.952;6.930;2023-04-24T13:10:25;9.07;;;4.18;;
19944;SDS011;10134;50.952;6.930;2023-04-24T13:12:52;6.85;;;3.50;;
19944;SDS011;10134;50.952;6.930;2023-04-24T13:15:20;12.02;;;3.92;;
19944;SDS011;10134;50.952;6.930;2023-04-24T13:17:47;9.15;;;4.30;;
19944;SDS011;10134;50.952;6.930;2023-04-24T13:20:14;12.30;;;3.85;;
19944;SDS011;10134;50.952;6.930;2023-04-24T13:22:42;9.80;;;4.43;;
19944;SDS011;10134;50.952;6.930;2023-04-24T13:25:09;6.97;;;4.10;;
19944;SDS011;10134;50.952;6.930;2023-04-24T13:27:38;6.60;;;4.05;;
19944;SDS011;10134;50.952;6.930;2023-04-24T13:30:06;7.32;;;3.95;;
19944;SDS011;10134;50.952;6.930;2023-04-24T13:32:34;7.40;;;3.55;;
19944;SDS011;10134;50.952;6.930;2023-04-24T13:35:02;10.88;;;3.88;;
19944;SDS011;10134;50.952;6.930;2023-04-24T13:37:29;8.23;;;3.47;;
19944;SDS011;10134;50.952;6.930;2023-04-24T13:39:57;9.38;;;4.22;;
19944;SDS011;10134;50.952;6.930;2023-04-24T13:42:24;7.82;;;3.85;;
19944;SDS011;10134;50.952;6.930;2023-04-24T13:44:51;10.68;;;3.53;;
19944;SDS011;10134;50.952;6.930;2023-04-24T13:47:19;7.47;;;3.65;;
19944;SDS011;10134;50.952;6.930;2023-04-24T13:49:46;5.28;;;3.17;;
19944;SDS011;10134;50.952;6.930;2023-04-24T13:52:13;6.45;;;3.60;;
19944;SDS011;10134;50.952;6.930;2023-04-24T13:54:41;6.03;;;3.60;;
19944;SDS011;10134;50.952;6.930;2023-04-24T13:57:08;11.35;;;4.47;;
19944;SDS011;10134;50.952;6.930;2023-04-24T13:59:35;11.10;;;4.40;;
19944;SDS011;10134;50.952;6.930;2023-04-24T14:02:03;9.55;;;3.78;;
19944;SDS011;10134;50.952;6.930;2023-04-24T14:04:31;9.50;;;3.90;;
19944;SDS011;10134;50.952;6.930;2023-04-24T14:06:58;7.63;;;4.47;;
19944;SDS011;10134;50.952;6.930;2023-04-24T14:09:26;4.55;;;2.70;;
19944;SDS011;10134;50.952;6.930;2023-04-24T14:11:53;4.15;;;2.13;;
19944;SDS011;10134;50.952;6.930;2023-04-24T14:14:20;4.15;;;2.85;;
19944;SDS011;10134;50.952;6.930;2023-04-24T14:16:47;5.75;;;2.60;;
19944;SDS011;10134;50.952;6.930;2023-04-24T14:19:15;6.72;;;3.40;;
19944;SDS011;10134;50.952;6.930;2023-04-24T14:21:43;5.32;;;2.72;;
19944;SDS011;10134;50.952;6.930;2023-04-24T14:24:11;7.05;;;3.88;;
19944;SDS011;10134;50.952;6.930;2023-04-24T14:26:38;6.47;;;3.70;;
19944;SDS011;10134;50.952;6.930;2023-04-24T14:29:05;9.18;;;3.40;;
19944;SDS011;10134;50.952;6.930;2023-04-24T14:31:41;8.57;;;3.28;;
19944;SDS011;10134;50.952;6.930;2023-04-24T14:34:10;6.47;;;3.28;;
19944;SDS011;10134;50.952;6.930;2023-04-24T14:36:37;6.50;;;2.95;;
19944;SDS011;10134;50.952;6.930;2023-04-24T14:39:05;6.35;;;3.08;;
19944;SDS011;10134;50.952;6.930;2023-04-24T14:41:34;6.10;;;3.03;;
19944;SDS011;10134;50.952;6.930;2023-04-24T14:44:03;4.35;;;3.10;;
19944;SDS011;10134;50.952;6.930;2023-04-24T14:46:30;11.35;;;3.40;;
19944;SDS011;10134;50.952;6.930;2023-04-24T14:48:58;7.53;;;3.40;;
19944;SDS011;10134;50.952;6.930;2023-04-24T14:51:26;5.03;;;2.88;;
19944;SDS011;10134;50.952;6.930;2023-04-24T14:53:53;5.35;;;3.72;;
19944;SDS011;10134;50.952;6.930;2023-04-24T14:56:21;6.22;;;3.00;;
19944;SDS011;10134;50.952;6.930;2023-04-24T14:58:48;5.75;;;3.10;;
19944;SDS011;10134;50.952;6.930;2023-04-24T15:01:15;4.85;;;3.08;;
19944;SDS011;10134;50.952;6.930;2023-04-24T15:03:43;5.57;;;2.70;;
19944;SDS011;10134;50.952;6.930;2023-04-24T15:06:12;2.83;;;2.05;;
19944;SDS011;10134;50.952;6.930;2023-04-24T15:08:39;5.70;;;2.97;;
19944;SDS011;10134;50.952;6.930;2023-04-24T15:11:07;5.47;;;2.83;;
19944;SDS011;10134;50.952;6.930;2023-04-24T15:13:34;5.22;;;2.88;;
19944;SDS011;10134;50.952;6.930;2023-04-24T15:16:02;6.07;;;2.58;;
19944;SDS011;10134;50.952;6.930;2023-04-24T15:18:29;7.70;;;2.67;;
19944;SDS011;10134;50.952;6.930;2023-04-24T15:20:57;9.20;;;2.80;;
19944;SDS011;10134;50.952;6.930;2023-04-24T15:23:24;8.90;;;2.60;;